Time;durP1;ratioP1;P1;durP2;ratioP2;P2;SDS_P1;SDS_P2;PMS_P1;PMS_P2;Temp;Humidity;BMP_temperature;BMP_pressure;BME280_temperature;BME280_humidity;BME280_pressure;Samples;Min_cycle;Max_cycle;Signal;HPM_P1;HPM_P2
2024/01/11 00:00:35;;;;;;;138.35;49.47;;;;;;;-6.20;70.79;100259.91;5020132;28;20025;-75
2024/01/11 00:03:00;;;;;;;118.50;44.67;;;;;;;-6.28;70.92;100260.47;5020457;28;20029;-77
2024/01/11 00:05:26;;;;;;;106.25;44.28;;;;;;;-6.32;70.90;100261.59;5021024;28;20025;-76
2024/01/11 00:07:52;;;;;;;101.72;44.10;;;;;;;-6.28;70.94;100270.84;5019914;28;20033;-76
2024/01/11 00:10:17;;;;;;;121.38;46.83;;;;;;;-6.36;70.99;100265.38;5022146;28;20037;-76
2024/01/11 00:12:43;;;;;;;108.15;43.90;;;;;;;-6.39;70.92;100282.91;5021424;28;20050;-76
2024/01/11 00:15:08;;;;;;;93.07;39.95;;;;;;;-6.34;71.11;100288.63;5017027;28;20037;-75
2024/01/11 00:17:34;;;;;;;100.50;40.58;;;;;;;-6.36;71.09;100291.34;5017731;28;20079;-76
2024/01/11 00:20:00;;;;;;;91.35;41.88;;;;;;;-6.37;70.59;100283.63;5012832;28;20029;-78
2024/01/11 00:22:25;;;;;;;89.60;38.17;;;;;;;-6.40;70.90;100281.25;5017465;28;20715;-75
2024/01/11 00:24:51;;;;;;;87.50;40.75;;;;;;;-6.41;70.79;100275.22;5014502;28;20053;-76
2024/01/11 00:27:16;;;;;;;92.03;41.65;;;;;;;-6.43;70.95;100279.69;5014819;28;20037;-76
2024/01/11 00:29:42;;;;;;;96.45;42.55;;;;;;;-6.42;71.40;100267.56;5014540;28;20043;-75
2024/01/11 00:32:07;;;;;;;94.60;42.10;;;;;;;-6.38;71.30;100258.63;5015257;28;20044;-76
2024/01/11 00:34:32;;;;;;;109.93;45.65;;;;;;;-6.34;71.02;100250.50;5016932;28;20631;-76
2024/01/11 00:36:58;;;;;;;109.90;46.00;;;;;;;-6.35;71.31;100256.63;5015716;28;20124;-75
2024/01/11 00:39:23;;;;;;;102.25;47.65;;;;;;;-6.35;71.07;100242.78;5018065;28;20786;-77
2024/01/11 00:41:49;;;;;;;100.32;43.22;;;;;;;-6.38;70.65;100249.06;5016668;28;20204;-76
2024/01/11 00:44:14;;;;;;;97.80;41.47;;;;;;;-6.45;70.99;100245.22;5015460;28;20081;-75
2024/01/11 00:46:40;;;;;;;101.72;43.88;;;;;;;-6.45;71.49;100245.22;5020570;28;20080;-78
2024/01/11 00:49:06;;;;;;;103.57;44.75;;;;;;;-6.41;71.45;100231.09;5018763;28;20029;-78
2024/01/11 00:51:31;;;;;;;95.03;42.28;;;;;;;-6.37;71.02;100226.50;5022741;28;20036;-78
2024/01/11 00:53:57;;;;;;;96.40;41.10;;;;;;;-6.41;70.58;100225.91;5019081;28;20034;-77
2024/01/11 00:56:22;;;;;;;87.80;38.67;;;;;;;-6.43;71.21;100242.50;5015483;28;20034;-78
2024/01/11 00:58:47;;;;;;;95.55;41.30;;;;;;;-6.50;71.12;100229.13;5018909;28;20239;-78
2024/01/11 01:01:13;;;;;;;90.28;39.70;;;;;;;-6.46;70.99;100224.53;5015433;28;20086;-77
2024/01/11 01:03:39;;;;;;;89.38;39.22;;;;;;;-6.54;71.59;100219.06;5016776;28;20029;-77
2024/01/11 01:06:05;;;;;;;85.65;41.10;;;;;;;-6.45;70.91;100234.84;5014704;28;20060;-77
2024/01/11 01:08:31;;;;;;;101.03;40.58;;;;;;;-6.54;71.34;100224.25;5015255;28;20394;-77
2024/01/11 01:10:56;;;;;;;97.32;40.70;;;;;;;-6.44;70.92;100233.06;5018324;28;20049;-77
2024/01/11 01:13:22;;;;;;;96.90;41.70;;;;;;;-6.53;70.96;100223.34;5018811;28;20112;-76
2024/01/11 01:15:47;;;;;;;79.63;37.75;;;;;;;-6.56;71.25;100226.13;5021664;28;20033;-76
2024/01/11 01:18:12;;;;;;;89.22;39.45;;;;;;;-6.61;71.17;100225.59;5018373;28;20033;-77
2024/01/11 01:20:38;;;;;;;99.43;40.97;;;;;;;-6.62;70.72;100227.41;5018137;28;20438;-76
2024/01/11 01:23:03;;;;;;;90.20;41.22;;;;;;;-6.64;70.71;100220.66;5022199;28;20038;-76
2024/01/11 01:25:29;;;;;;;101.90;42.70;;;;;;;-6.67;71.04;100224.28;5030210;28;20030;-76
2024/01/11 01:27:55;;;;;;;87.82;41.13;;;;;;;-6.77;70.70;100222.44;5030465;28;20033;-76
2024/01/11 01:30:21;;;;;;;100.07;39.55;;;;;;;-6.68;70.92;100225.19;5029964;28;20116;-76
2024/01/11 01:32:47;;;;;;;98.32;44.25;;;;;;;-6.71;70.70;100224.59;5030695;28;20564;-77
2024/01/11 01:35:12;;;;;;;91.18;39.72;;;;;;;-6.71;70.96;100219.41;5026840;28;20037;-77
2024/01/11 01:37:37;;;;;;;87.35;38.65;;;;;;;-6.81;70.81;100219.19;5028385;28;20509;-76
2024/01/11 01:40:03;;;;;;;99.28;40.47;;;;;;;-6.66;70.69;100236.31;5021923;28;20483;-77
2024/01/11 01:42:28;;;;;;;94.95;39.83;;;;;;;-6.73;70.67;100244.63;5026806;28;20064;-77
2024/01/11 01:44:54;;;;;;;89.72;39.90;;;;;;;-6.77;70.83;100241.41;5026734;28;20033;-76
2024/01/11 01:47:19;;;;;;;96.72;40.72;;;;;;;-6.74;71.13;100250.75;5024706;28;20045;-76
2024/01/11 01:49:48;;;;;;;86.30;37.22;;;;;;;-6.76;70.79;100243.06;5026537;28;20036;-77
2024/01/11 01:52:15;;;;;;;90.55;40.38;;;;;;;-6.83;70.35;100247.03;5023988;28;20061;-77
2024/01/11 01:54:40;;;;;;;98.15;40.55;;;;;;;-6.77;70.70;100251.78;5027133;28;20037;-76
2024/01/11 01:57:07;;;;;;;93.43;41.47;;;;;;;-6.75;70.56;100249.09;5026734;28;20040;-76
2024/01/11 01:59:33;;;;;;;98.47;41.40;;;;;;;-6.78;70.84;100244.13;5027768;28;20053;-76
2024/01/11 02:01:59;;;;;;;96.70;42.95;;;;;;;-6.81;71.20;100241.75;5025670;28;20045;-76
2024/01/11 02:04:24;;;;;;;97.25;41.40;;;;;;;-6.81;71.11;100237.34;5028209;28;20033;-76
2024/01/11 02:06:54;;;;;;;97.90;42.10;;;;;;;-6.79;70.85;100237.28;5027636;28;20139;-76
2024/01/11 02:09:19;;;;;;;91.93;41.42;;;;;;;-6.79;71.12;100235.50;5024777;28;20033;-77
2024/01/11 02:11:45;;;;;;;96.18;40.90;;;;;;;-6.84;71.06;100224.63;5020743;28;20490;-77
2024/01/11 02:14:10;;;;;;;96.85;42.25;;;;;;;-6.78;70.92;100234.56;5022791;28;20486;-79
2024/01/11 02:16:36;;;;;;;90.78;39.90;;;;;;;-6.77;70.92;100225.03;5026571;28;20482;-76
2024/01/11 02:19:04;;;;;;;91.55;41.38;;;;;;;-6.79;70.86;100222.50;5023711;28;20041;-77
2024/01/11 02:21:33;;;;;;;103.82;42.47;;;;;;;-6.78;71.17;100219.00;5028356;28;20025;-77
2024/01/11 02:24:05;;;;;;;86.43;41.00;;;;;;;-6.75;70.96;100223.16;5026925;28;20375;-77
2024/01/11 02:26:30;;;;;;;100.22;41.95;;;;;;;-6.78;70.79;100225.94;5022609;28;20041;-78
2024/01/11 02:28:56;;;;;;;95.88;40.90;;;;;;;-6.81;71.17;100229.56;5028197;28;20449;-77
2024/01/11 02:31:21;;;;;;;90.40;40.13;;;;;;;-6.77;70.67;100230.22;5023997;28;20033;-78
2024/01/11 02:33:47;;;;;;;94.80;39.30;;;;;;;-6.86;70.72;100242.06;5027216;28;20033;-77
2024/01/11 02:36:13;;;;;;;95.30;41.92;;;;;;;-6.81;70.80;100239.16;5024382;28;20041;-78
2024/01/11 02:38:41;;;;;;;93.78;40.53;;;;;;;-6.84;70.90;100239.34;5023436;28;20026;-76
2024/01/11 02:41:07;;;;;;;87.63;40.47;;;;;;;-6.90;70.51;100237.97;5022020;28;20521;-76
2024/01/11 02:43:35;;;;;;;86.60;41.20;;;;;;;-6.90;70.78;100236.22;5026728;28;20482;-75
2024/01/11 02:46:01;;;;;;;88.30;40.15;;;;;;;-6.89;71.03;100242.25;5027665;28;20033;-76
2024/01/11 02:48:30;;;;;;;97.88;41.40;;;;;;;-6.93;70.79;100238.22;5029078;28;20087;-75
2024/01/11 02:50:58;;;;;;;105.05;41.65;;;;;;;-6.91;70.75;100232.00;5023169;28;20640;-76
2024/01/11 02:53:24;;;;;;;82.78;38.60;;;;;;;-6.88;70.65;100244.72;5024556;28;20048;-77
2024/01/11 02:55:52;;;;;;;94.38;41.20;;;;;;;-6.90;70.60;100241.41;5019035;28;20489;-76
2024/01/11 02:58:17;;;;;;;96.18;39.85;;;;;;;-6.91;70.47;100249.31;5028486;28;20448;-77
2024/01/11 03:00:43;;;;;;;90.35;42.20;;;;;;;-6.96;70.71;100243.59;5026638;28;20072;-76
2024/01/11 03:03:08;;;;;;;103.30;44.53;;;;;;;-6.92;70.71;100252.81;5023712;28;20164;-78
2024/01/11 03:05:34;;;;;;;103.93;45.85;;;;;;;-6.95;70.81;100240.09;5027710;28;20033;-77
2024/01/11 03:07:59;;;;;;;98.65;40.22;;;;;;;-6.93;70.29;100249.44;5023809;28;20042;-77
2024/01/11 03:10:24;;;;;;;98.13;39.90;;;;;;;-6.96;70.75;100236.66;5030291;28;20037;-77
2024/01/11 03:12:50;;;;;;;97.00;41.30;;;;;;;-6.93;70.60;100246.84;5026085;28;20038;-76
2024/01/11 03:15:15;;;;;;;98.75;42.67;;;;;;;-6.90;70.51;100254.38;5025724;28;20030;-77
2024/01/11 03:17:41;;;;;;;93.68;38.92;;;;;;;-6.97;70.51;100234.97;5025403;28;20040;-75
2024/01/11 03:20:07;;;;;;;91.95;40.40;;;;;;;-6.93;70.85;100233.03;5020458;28;20018;-78
2024/01/11 03:22:32;;;;;;;101.45;42.10;;;;;;;-6.89;70.75;100232.72;5026173;28;20438;-78
2024/01/11 03:24:58;;;;;;;90.70;38.45;;;;;;;-6.86;70.53;100226.50;5029169;28;20048;-76
2024/01/11 03:27:23;;;;;;;104.90;43.78;;;;;;;-6.89;70.74;100237.91;5028366;28;20037;-77
2024/01/11 03:29:49;;;;;;;108.75;43.78;;;;;;;-6.91;70.95;100246.72;5021310;28;20036;-77
2024/01/11 03:32:15;;;;;;;88.22;39.97;;;;;;;-6.90;70.67;100237.97;5026875;28;20084;-77
2024/01/11 03:34:40;;;;;;;98.32;42.17;;;;;;;-6.96;70.69;100236.66;5025533;28;20025;-77
2024/01/11 03:37:06;;;;;;;95.35;42.13;;;;;;;-6.98;70.82;100232.50;5023958;28;20041;-76
2024/01/11 03:39:31;;;;;;;105.05;44.58;;;;;;;-6.93;71.06;100240.81;5027794;28;20502;-77
2024/01/11 03:41:56;;;;;;;104.72;44.60;;;;;;;-6.98;70.95;100224.72;5027261;28;20083;-78
2024/01/11 03:44:22;;;;;;;91.65;40.58;;;;;;;-6.96;70.83;100231.47;5026795;28;20502;-77
2024/01/11 03:46:48;;;;;;;95.70;39.97;;;;;;;-7.00;70.65;100227.41;5020836;28;20446;-77
2024/01/11 03:49:14;;;;;;;92.50;40.08;;;;;;;-7.04;70.51;100217.34;5026785;28;20033;-77
2024/01/11 03:51:39;;;;;;;85.40;39.25;;;;;;;-7.04;70.58;100230.31;5024057;28;20124;-77
2024/01/11 03:54:05;;;;;;;89.63;40.97;;;;;;;-7.06;70.60;100234.78;5023617;28;20128;-78
2024/01/11 03:56:30;;;;;;;94.60;38.13;;;;;;;-7.06;70.69;100238.22;5028719;28;20470;-77
2024/01/11 03:58:55;;;;;;;75.63;37.42;;;;;;;-7.12;70.50;100232.63;5018344;28;20030;-76
2024/01/11 04:01:21;;;;;;;88.05;38.22;;;;;;;-7.08;70.39;100232.31;5018190;28;20475;-75
2024/01/11 04:03:46;;;;;;;82.00;37.58;;;;;;;-7.00;70.16;100224.00;5020234;28;20052;-76
2024/01/11 04:06:24;;;;;;;90.18;38.13;;;;;;;-7.09;70.19;100215.06;5024632;28;20081;-77
2024/01/11 04:08:50;;;;;;;83.07;37.45;;;;;;;-7.08;70.80;100216.75;5021213;28;20381;-76
2024/01/11 04:11:16;;;;;;;93.47;39.70;;;;;;;-7.09;70.64;100215.06;5024962;28;20052;-77
2024/01/11 04:13:42;;;;;;;91.78;40.05;;;;;;;-7.06;70.71;100211.44;5026890;28;20030;-76
2024/01/11 04:16:08;;;;;;;86.88;39.47;;;;;;;-7.08;70.74;100213.31;5022266;28;20401;-75
2024/01/11 04:18:33;;;;;;;96.25;43.70;;;;;;;-8.03;71.56;100238.59;5021608;28;21785;-76
2024/01/11 04:20:58;;;;;;;93.82;41.55;;;;;;;-8.24;74.96;100239.97;5018450;28;20044;-77
2024/01/11 04:23:24;;;;;;;93.95;39.25;;;;;;;-7.46;72.89;100241.78;5022769;28;20022;-77
2024/01/11 04:25:51;;;;;;;97.95;39.10;;;;;;;-7.23;71.68;100240.28;5022405;28;20033;-77
2024/01/11 04:28:17;;;;;;;103.80;43.00;;;;;;;-7.25;71.15;100234.38;5023633;28;20041;-78
2024/01/11 04:30:42;;;;;;;96.05;42.08;;;;;;;-7.92;71.54;100258.63;5017630;28;20098;-77
2024/01/11 04:33:08;;;;;;;101.80;43.70;;;;;;;-7.35;72.02;100243.66;5020856;28;20102;-78
2024/01/11 04:35:33;;;;;;;99.90;42.05;;;;;;;-7.28;70.89;100248.38;5021902;28;20033;-76
2024/01/11 04:37:58;;;;;;;104.35;44.60;;;;;;;-7.85;71.67;100268.53;5022760;28;20033;-75
2024/01/11 04:40:24;;;;;;;107.15;44.22;;;;;;;-7.25;72.10;100281.03;5021465;28;20041;-76
2024/01/11 04:42:49;;;;;;;101.03;41.97;;;;;;;-7.18;71.65;100277.94;5026402;28;20033;-78
2024/01/11 04:45:14;;;;;;;95.13;39.22;;;;;;;-7.19;70.92;100270.25;5023660;28;20033;-77
2024/01/11 04:47:40;;;;;;;95.75;40.35;;;;;;;-7.14;71.05;100278.56;5025299;28;20033;-77
2024/01/11 04:50:06;;;;;;;91.85;38.83;;;;;;;-7.22;70.96;100270.44;5022228;28;20038;-77
2024/01/11 04:52:32;;;;;;;100.95;43.03;;;;;;;-7.15;70.64;100284.69;5022030;28;20042;-76
2024/01/11 04:54:57;;;;;;;94.95;43.13;;;;;;;-7.18;70.87;100297.84;5019458;28;20049;-78
2024/01/11 04:57:23;;;;;;;95.80;42.78;;;;;;;-7.16;71.25;100311.53;5022428;28;20030;-78
2024/01/11 04:59:48;;;;;;;85.22;39.17;;;;;;;-7.17;70.61;100318.50;5022080;28;20041;-78
2024/01/11 05:02:13;;;;;;;89.97;41.58;;;;;;;-7.22;70.99;100306.75;5027209;28;20034;-78
2024/01/11 05:04:39;;;;;;;91.97;41.92;;;;;;;-7.28;70.95;100307.16;5025538;28;20088;-77
2024/01/11 05:07:04;;;;;;;97.90;41.58;;;;;;;-7.19;71.18;100291.00;5029859;28;20493;-76
2024/01/11 05:09:29;;;;;;;99.18;43.00;;;;;;;-7.20;71.07;100297.13;5023567;28;20124;-74
2024/01/11 05:11:55;;;;;;;101.03;41.33;;;;;;;-7.16;71.16;100306.34;5020192;28;20148;-75
2024/01/11 05:14:20;;;;;;;101.50;41.13;;;;;;;-7.20;70.98;100304.88;5020636;28;20111;-73
2024/01/11 05:16:45;;;;;;;94.68;42.85;;;;;;;-7.23;71.15;100299.94;5024163;28;20072;-74
2024/01/11 05:19:11;;;;;;;95.60;43.63;;;;;;;-7.15;71.33;100308.84;5029753;28;20501;-75
2024/01/11 05:21:36;;;;;;;106.72;42.17;;;;;;;-7.12;70.63;100307.84;5026332;28;20037;-75
2024/01/11 05:24:01;;;;;;;91.03;41.72;;;;;;;-7.15;71.01;100305.44;5020510;28;20053;-76
2024/01/11 05:26:27;;;;;;;94.30;42.03;;;;;;;-7.16;70.99;100288.19;5024251;28;20061;-75
2024/01/11 05:28:52;;;;;;;97.30;40.97;;;;;;;-7.14;71.00;100281.16;5023171;28;20029;-75
2024/01/11 05:31:18;;;;;;;90.78;41.45;;;;;;;-7.09;71.05;100256.56;5028089;28;20095;-75
2024/01/11 05:33:43;;;;;;;90.55;41.40;;;;;;;-7.08;71.22;100234.06;5026387;28;20037;-75
2024/01/11 05:36:09;;;;;;;95.10;41.85;;;;;;;-7.03;71.43;100231.97;5030295;28;20021;-74
2024/01/11 05:38:35;;;;;;;93.35;40.58;;;;;;;-7.04;70.86;100219.94;5020498;28;20033;-74
2024/01/11 05:41:01;;;;;;;98.25;41.92;;;;;;;-6.97;71.00;100223.78;5027216;28;20033;-74
2024/01/11 05:43:26;;;;;;;93.70;43.33;;;;;;;-6.91;71.19;100223.38;5025488;28;20037;-74
2024/01/11 05:45:51;;;;;;;102.72;43.60;;;;;;;-6.87;70.96;100240.38;5030161;28;20040;-74
2024/01/11 05:48:17;;;;;;;102.15;44.15;;;;;;;-6.88;71.02;100244.72;5027054;28;20029;-74
2024/01/11 05:50:46;;;;;;;111.97;47.38;;;;;;;-6.92;71.19;100242.44;5027659;28;20048;-75
2024/01/11 05:53:12;;;;;;;109.10;46.50;;;;;;;-6.90;71.23;100250.97;5022727;28;20044;-73
2024/01/11 05:55:37;;;;;;;112.50;45.95;;;;;;;-6.90;71.34;100240.56;5025392;28;20097;-73
2024/01/11 05:58:03;;;;;;;107.43;43.28;;;;;;;-6.95;70.67;100238.31;5031215;28;20033;-74
2024/01/11 06:00:28;;;;;;;116.75;46.63;;;;;;;-7.73;71.47;100262.53;5020692;28;20038;-74
2024/01/11 06:02:54;;;;;;;105.35;46.75;;;;;;;-8.69;74.62;100286.81;5024849;28;20053;-74
2024/01/11 06:05:19;;;;;;;105.50;44.53;;;;;;;-7.70;75.12;100279.66;5027844;28;20557;-73
2024/01/11 06:07:44;;;;;;;112.47;47.05;;;;;;;-7.22;72.87;100270.44;5028485;28;20053;-74
2024/01/11 06:10:10;;;;;;;114.68;45.08;;;;;;;-7.10;72.11;100275.66;5031058;28;20438;-74
2024/01/11 06:12:35;;;;;;;152.48;52.65;;;;;;;-7.09;71.80;100276.47;5030952;28;20398;-74
2024/01/11 06:15:02;;;;;;;187.48;69.63;;;;;;;-7.09;71.67;100282.50;5033020;28;20033;-73
2024/01/11 06:17:27;;;;;;;205.60;74.05;;;;;;;-7.09;71.44;100271.28;5033680;28;20410;-74
2024/01/11 06:19:53;;;;;;;193.43;71.57;;;;;;;-7.09;71.14;100276.47;5028138;28;20099;-75
2024/01/11 06:22:19;;;;;;;196.48;68.53;;;;;;;-7.24;71.38;100287.88;5031595;28;20437;-75
2024/01/11 06:24:44;;;;;;;146.32;56.20;;;;;;;-8.29;72.33;100303.31;5032095;28;20041;-76
2024/01/11 06:27:10;;;;;;;144.45;56.67;;;;;;;-7.47;73.32;100299.78;5025019;28;20033;-77
2024/01/11 06:29:35;;;;;;;143.80;56.70;;;;;;;-7.23;72.33;100298.13;5033062;28;20486;-75
2024/01/11 06:32:00;;;;;;;129.15;55.90;;;;;;;-7.42;72.11;100302.03;5031774;28;20049;-76
2024/01/11 06:34:26;;;;;;;125.70;52.47;;;;;;;-7.11;71.53;100318.09;5032878;28;20508;-75
2024/01/11 06:36:52;;;;;;;114.95;48.72;;;;;;;-7.16;71.59;100307.19;5028666;28;20399;-76
2024/01/11 06:39:17;;;;;;;105.15;47.40;;;;;;;-7.18;71.04;100305.63;5031464;28;20033;-75
2024/01/11 06:41:43;;;;;;;114.97;48.25;;;;;;;-7.23;71.53;100294.75;5032635;28;20383;-75
2024/01/11 06:44:08;;;;;;;127.68;49.05;;;;;;;-7.20;71.38;100313.50;5031886;28;20108;-75
2024/01/11 06:46:35;;;;;;;128.43;53.58;;;;;;;-7.17;71.49;100304.69;5032269;28;20033;-75
2024/01/11 06:49:01;;;;;;;127.93;53.40;;;;;;;-7.18;71.22;100303.88;5032096;28;20048;-75
2024/01/11 06:51:26;;;;;;;118.97;51.25;;;;;;;-7.20;71.61;100297.13;5029517;28;20021;-75
2024/01/11 06:53:52;;;;;;;116.25;50.58;;;;;;;-7.19;71.69;100311.75;5025648;28;20040;-76
2024/01/11 06:56:19;;;;;;;125.55;52.33;;;;;;;-7.22;71.26;100317.13;5031648;28;20056;-75
2024/01/11 06:58:45;;;;;;;127.95;50.85;;;;;;;-7.22;71.32;100301.56;5031185;28;20034;-75
2024/01/11 07:01:11;;;;;;;132.93;52.65;;;;;;;-7.20;71.32;100291.94;5032457;28;20517;-76
2024/01/11 07:03:38;;;;;;;109.53;47.72;;;;;;;-7.21;71.40;100287.69;5030095;28;20057;-76
2024/01/11 07:06:03;;;;;;;121.55;48.92;;;;;;;-7.24;71.27;100285.28;5029146;28;20026;-76
2024/01/11 07:08:29;;;;;;;117.35;48.63;;;;;;;-7.25;71.63;100274.06;5029252;28;20500;-75
2024/01/11 07:10:55;;;;;;;118.43;48.13;;;;;;;-7.30;71.66;100267.53;5023762;28;20041;-74
2024/01/11 07:13:20;;;;;;;117.68;47.45;;;;;;;-7.17;71.75;100284.78;5021109;28;20114;-76
2024/01/11 07:15:46;;;;;;;116.10;49.53;;;;;;;-7.15;71.29;100288.09;5025742;28;20040;-75
2024/01/11 07:18:12;;;;;;;132.45;53.60;;;;;;;-7.17;71.77;100274.41;5027547;28;20033;-76
2024/01/11 07:20:37;;;;;;;133.90;50.58;;;;;;;-7.17;71.37;100245.06;5027390;28;20060;-76
2024/01/11 07:23:03;;;;;;;137.32;52.45;;;;;;;-7.05;71.88;100257.19;5026636;28;20869;-74
2024/01/11 07:25:30;;;;;;;135.25;50.13;;;;;;;-7.59;72.02;100274.63;5021663;28;20037;-75
2024/01/11 07:27:55;;;;;;;103.82;46.53;;;;;;;-7.30;72.93;100286.53;5029704;28;20033;-75
2024/01/11 07:30:20;;;;;;;112.38;49.20;;;;;;;-7.11;72.45;100289.56;5026856;28;20037;-75
2024/01/11 07:32:46;;;;;;;104.88;46.50;;;;;;;-7.04;71.77;100282.22;5030734;28;20041;-75
2024/01/11 07:35:12;;;;;;;116.38;47.67;;;;;;;-7.03;71.54;100281.25;5029873;28;20033;-75
2024/01/11 07:37:38;;;;;;;109.88;50.05;;;;;;;-7.00;71.42;100274.13;5030520;28;20021;-75
2024/01/11 07:40:09;;;;;;;121.43;48.38;;;;;;;-7.02;71.23;100282.94;5022179;28;20096;-75
2024/01/11 07:42:35;;;;;;;122.80;53.03;;;;;;;-6.98;71.56;100276.59;5025394;28;20021;-76
2024/01/11 07:45:00;;;;;;;131.27;52.13;;;;;;;-7.00;71.76;100287.09;5027995;28;20029;-75
2024/01/11 07:47:26;;;;;;;122.85;49.83;;;;;;;-6.99;72.12;100286.13;5030844;28;20029;-75
2024/01/11 07:49:51;;;;;;;102.55;44.55;;;;;;;-6.96;71.55;100291.13;5030011;28;20034;-74
2024/01/11 07:52:17;;;;;;;108.63;47.33;;;;;;;-6.86;72.30;100288.75;5028664;28;20072;-74
2024/01/11 07:54:42;;;;;;;102.95;48.67;;;;;;;-6.79;72.00;100289.19;5026662;28;20045;-74
2024/01/11 07:57:07;;;;;;;115.18;51.72;;;;;;;-6.85;72.25;100298.19;5027561;28;20045;-75
2024/01/11 07:59:35;;;;;;;122.10;47.88;;;;;;;-7.45;71.68;100299.66;5029615;28;20022;-74
2024/01/11 08:02:01;;;;;;;111.78;48.05;;;;;;;-7.95;73.57;100321.81;5026449;28;20490;-74
2024/01/11 08:04:26;;;;;;;115.88;49.00;;;;;;;-7.34;73.97;100307.56;5028410;28;20033;-74
2024/01/11 08:06:52;;;;;;;117.90;50.25;;;;;;;-6.99;72.59;100309.50;5028532;28;20073;-74
2024/01/11 08:09:18;;;;;;;98.10;46.95;;;;;;;-6.96;72.45;100303.28;5021120;28;20116;-74
2024/01/11 08:11:43;;;;;;;118.43;51.08;;;;;;;-6.98;71.99;100280.03;5024227;28;20025;-74
2024/01/11 08:14:09;;;;;;;126.43;52.40;;;;;;;-6.96;71.98;100282.50;5027795;28;20034;-74
2024/01/11 08:16:34;;;;;;;127.43;53.72;;;;;;;-6.89;72.15;100282.00;5026979;28;20037;-74
2024/01/11 08:19:00;;;;;;;133.63;55.83;;;;;;;-6.88;72.20;100288.03;5028021;28;20079;-74
2024/01/11 08:21:26;;;;;;;141.50;58.45;;;;;;;-6.85;71.95;100298.19;5028905;28;20034;-74
2024/01/11 08:23:51;;;;;;;140.30;59.17;;;;;;;-6.77;72.22;100302.88;5026949;28;20075;-74
2024/01/11 08:26:18;;;;;;;125.97;53.72;;;;;;;-6.79;72.18;100307.34;5026892;28;20064;-74
2024/01/11 08:28:44;;;;;;;117.82;52.20;;;;;;;-6.57;71.48;100305.78;5028938;28;20037;-74
2024/01/11 08:31:09;;;;;;;118.47;50.53;;;;;;;-6.62;71.42;100307.88;5027620;28;20033;-74
2024/01/11 08:33:36;;;;;;;124.10;51.50;;;;;;;-6.62;71.40;100286.28;5027010;28;20057;-74
2024/01/11 08:36:03;;;;;;;121.75;51.50;;;;;;;-6.68;71.75;100300.47;5027422;28;20029;-74
2024/01/11 08:38:30;;;;;;;124.15;51.25;;;;;;;-6.57;71.78;100310.97;5028481;28;20394;-74
2024/01/11 08:40:55;;;;;;;111.20;48.20;;;;;;;-7.35;73.43;100311.91;5026300;28;20079;-74
2024/01/11 08:43:20;;;;;;;119.38;51.40;;;;;;;-7.90;75.85;100303.41;5027941;28;20025;-74
2024/01/11 08:45:49;;;;;;;109.75;50.20;;;;;;;-7.56;75.65;100299.50;5027322;28;20037;-74
2024/01/11 08:48:15;;;;;;;114.03;49.78;;;;;;;-8.11;77.11;100312.53;5028102;28;20072;-74
2024/01/11 08:50:40;;;;;;;116.80;51.03;;;;;;;-8.65;79.37;100337.47;5026113;28;20076;-74
2024/01/11 08:53:06;;;;;;;115.22;51.47;;;;;;;-7.91;80.01;100322.50;5027365;28;20524;-74
2024/01/11 08:55:32;;;;;;;130.70;50.17;;;;;;;-8.16;79.58;100330.94;5028804;28;20030;-74
2024/01/11 08:57:58;;;;;;;117.63;52.80;;;;;;;-8.37;80.52;100336.63;5027848;28;20099;-74
2024/01/11 09:00:23;;;;;;;123.35;51.80;;;;;;;-7.68;80.02;100322.69;5025386;28;20034;-74
2024/01/11 09:02:49;;;;;;;115.40;48.72;;;;;;;-6.74;76.04;100303.50;5026664;28;20025;-74
2024/01/11 09:05:15;;;;;;;113.95;49.55;;;;;;;-6.63;74.84;100318.34;5027906;28;20674;-75
2024/01/11 09:07:40;;;;;;;103.15;47.25;;;;;;;-6.99;76.17;100319.88;5028541;28;20047;-74
2024/01/11 09:10:08;;;;;;;115.05;50.58;;;;;;;-6.30;74.17;100323.81;5027242;28;20624;-74
2024/01/11 09:12:34;;;;;;;107.03;46.33;;;;;;;-6.57;74.19;100323.94;5027164;28;20041;-75
2024/01/11 09:15:00;;;;;;;108.18;47.08;;;;;;;-6.62;75.09;100322.63;5029459;28;20029;-74
2024/01/11 09:17:25;;;;;;;115.45;50.22;;;;;;;-6.89;75.86;100327.88;5029008;28;20259;-75
2024/01/11 09:19:51;;;;;;;111.20;47.65;;;;;;;-6.39;74.44;100321.88;5027932;28;20045;-75
2024/01/11 09:22:17;;;;;;;107.93;48.03;;;;;;;-6.50;74.96;100317.41;5027351;28;20472;-75
2024/01/11 09:24:42;;;;;;;109.60;49.15;;;;;;;-6.34;73.69;100320.63;5026298;28;20125;-75
2024/01/11 09:27:08;;;;;;;100.18;47.78;;;;;;;-6.06;73.66;100318.69;5028234;28;20075;-75
2024/01/11 09:29:33;;;;;;;115.00;50.88;;;;;;;-5.93;72.98;100316.88;5029213;28;20030;-74
2024/01/11 09:31:59;;;;;;;106.50;47.40;;;;;;;-6.01;73.25;100314.84;5027339;28;20036;-75
2024/01/11 09:34:25;;;;;;;109.35;46.83;;;;;;;-5.91;72.57;100320.22;5028778;28;20021;-74
2024/01/11 09:36:50;;;;;;;108.75;48.10;;;;;;;-5.88;73.17;100318.25;5025900;28;20440;-74
2024/01/11 09:39:16;;;;;;;115.72;50.05;;;;;;;-5.86;72.76;100312.94;5030015;28;20029;-75
2024/01/11 09:41:52;;;;;;;112.97;49.05;;;;;;;-5.80;72.44;100317.66;5032522;28;20056;-74
2024/01/11 09:44:18;;;;;;;111.03;48.15;;;;;;;-5.79;73.02;100303.72;5033975;28;20014;-74
2024/01/11 09:46:44;;;;;;;115.80;50.53;;;;;;;-5.69;72.75;100318.56;5035302;28;20033;-75
2024/01/11 09:49:11;;;;;;;110.18;50.80;;;;;;;-6.38;74.95;100303.59;5037197;28;20037;-75
2024/01/11 09:51:38;;;;;;;108.13;50.05;;;;;;;-6.33;76.10;100304.09;5036896;28;20048;-74
2024/01/11 09:54:04;;;;;;;109.47;48.58;;;;;;;-6.71;78.33;100303.31;5040003;28;20110;-74
2024/01/11 09:56:30;;;;;;;104.85;49.55;;;;;;;-6.41;77.98;100314.19;5035444;28;20029;-74
2024/01/11 09:58:56;;;;;;;107.13;48.63;;;;;;;-6.22;76.84;100301.56;5035312;28;20076;-74
2024/01/11 10:01:23;;;;;;;113.15;52.15;;;;;;;-6.74;78.62;100310.44;5033050;28;20040;-75
2024/01/11 10:03:48;;;;;;;119.82;52.30;;;;;;;-7.15;80.95;100324.41;5027648;28;20040;-74
2024/01/11 10:06:15;;;;;;;119.10;52.53;;;;;;;-7.32;81.92;100339.41;5031877;28;20112;-74
2024/01/11 10:08:40;;;;;;;119.63;50.58;;;;;;;-6.65;80.67;100354.78;5031228;28;20025;-75
2024/01/11 10:11:06;;;;;;;116.53;55.47;;;;;;;-7.10;81.49;100361.25;5030479;28;20045;-75
2024/01/11 10:13:32;;;;;;;132.80;57.80;;;;;;;-7.40;82.54;100341.69;5030414;28;20025;-74
2024/01/11 10:16:16;;;;;;;115.53;51.65;;;;;;;-6.39;80.76;100340.03;5028356;28;20025;-74
2024/01/11 10:18:42;;;;;;;107.85;49.28;;;;;;;-5.73;76.82;100329.28;5029256;28;20026;-75
2024/01/11 10:21:09;;;;;;;117.75;53.22;;;;;;;-5.66;74.82;100322.72;5029844;28;20036;-74
2024/01/11 10:23:35;;;;;;;112.50;51.13;;;;;;;-5.46;74.83;100315.13;5031011;28;20363;-76
2024/01/11 10:26:02;;;;;;;113.75;51.45;;;;;;;-5.47;74.43;100295.28;5030751;28;21841;-75
2024/01/11 10:28:28;;;;;;;115.78;49.95;;;;;;;-5.44;73.59;100313.22;5030551;28;20108;-75
2024/01/11 10:30:54;;;;;;;109.05;49.08;;;;;;;-5.45;74.45;100305.56;5030746;28;20556;-75
2024/01/11 10:33:21;;;;;;;108.43;51.05;;;;;;;-5.33;74.18;100304.69;5030380;28;20128;-75
2024/01/11 10:35:48;;;;;;;105.68;50.80;;;;;;;-5.84;76.27;100304.09;5031167;28;20581;-75
2024/01/11 10:38:14;;;;;;;107.97;48.92;;;;;;;-5.58;76.56;100286.56;5031179;28;20116;-74
2024/01/11 10:40:41;;;;;;;108.78;49.45;;;;;;;-5.28;74.95;100284.34;5028992;28;20072;-74
2024/01/11 10:43:11;;;;;;;113.22;52.42;;;;;;;-5.25;74.44;100293.69;5030702;28;20037;-75
2024/01/11 10:45:39;;;;;;;114.95;49.97;;;;;;;-5.15;73.83;100268.66;5030046;28;20060;-74
2024/01/11 10:48:14;;;;;;;103.93;47.92;;;;;;;-5.14;74.36;100280.72;5030009;28;20514;-75
2024/01/11 10:50:43;;;;;;;114.68;51.85;;;;;;;-5.04;74.03;100281.69;5029195;28;20033;-74
2024/01/11 10:53:11;;;;;;;107.10;50.60;;;;;;;-5.03;73.79;100286.78;5029560;28;20052;-75
2024/01/11 10:55:38;;;;;;;109.70;53.17;;;;;;;-5.75;76.65;100290.41;5029316;28;20037;-74
2024/01/11 10:58:04;;;;;;;112.10;47.45;;;;;;;-5.57;76.88;100283.06;5029457;28;20037;-74